Vallecitos, New Mexico
Current Conditions -  °F | °C
As of 8:35 PM on Saturday 22 Nov 2014 (Local Time) from KSKX Reporting Station
Broken Clouds Broken Clouds  
Wind Chill: 34°   Ceiling: 9000
Heat Index: 37°   Visibility: 10mi
Dew Point: 18°   Wind: 5mph
Humidity: 45%   Direction: 220°SW
Pressure: 29.89"   Gusts: NA
Location:  36.49°N, 106.12°W
Report Text: KSKX 230335Z AUTO 22004KT 10SM FEW075 BKN090 03/M08 A2989 RMK AO1
Loading
Personal Weather Stations






























Interactive Weather Map New forecast layout! Learn more

10-Day Weather Forecast

Advertisements
Track Severe Weather on mobile